createdAt,value
2023-03-09T00:01:55.974Z,-0.80
2023-03-09T00:04:26.171Z,-0.91
2023-03-09T00:06:55.879Z,-0.64
2023-03-09T00:09:25.790Z,-0.48
2023-03-09T00:11:55.575Z,-0.64
2023-03-09T00:14:25.843Z,-0.74
2023-03-09T00:16:56.349Z,-0.85
2023-03-09T00:19:31.540Z,-0.94
2023-03-09T00:21:59.112Z,-0.68
2023-03-09T00:24:29.291Z,-0.60
2023-03-09T00:27:02.634Z,-0.81
2023-03-09T00:29:33.055Z,-0.88
2023-03-09T00:32:06.602Z,-0.63
2023-03-09T00:34:36.015Z,-0.75
2023-03-09T00:37:06.110Z,-0.83
2023-03-09T00:39:35.819Z,-0.77
2023-03-09T00:42:08.718Z,-0.60
2023-03-09T00:44:39.178Z,-0.64
2023-03-09T00:47:09.288Z,-0.72
2023-03-09T00:49:39.838Z,-0.60
2023-03-09T00:52:10.045Z,-0.52
2023-03-09T00:54:40.138Z,-0.55
2023-03-09T00:57:10.256Z,-0.70
2023-03-09T00:59:45.868Z,-0.72
2023-03-09T01:02:16.545Z,-0.68
2023-03-09T01:04:48.465Z,-0.80
2023-03-09T01:07:19.557Z,-0.63
2023-03-09T01:09:50.245Z,-0.67
2023-03-09T01:12:20.389Z,-0.61
2023-03-09T01:14:55.084Z,-0.52
2023-03-09T01:17:25.556Z,-0.42
2023-03-09T01:19:55.678Z,-0.72
2023-03-09T01:22:25.754Z,-0.71
2023-03-09T01:24:56.098Z,-0.86
2023-03-09T01:27:26.318Z,-0.92
2023-03-09T01:29:56.503Z,-0.89
2023-03-09T01:32:27.036Z,-0.92
2023-03-09T01:34:57.687Z,-0.95
2023-03-09T01:37:27.839Z,-0.80
2023-03-09T01:39:58.195Z,-0.95
2023-03-09T01:42:28.400Z,-1.02
2023-03-09T01:45:19.735Z,-1.07
2023-03-09T01:47:50.756Z,-1.10
2023-03-09T01:50:35.580Z,-1.16
2023-03-09T01:53:18.330Z,-1.00
2023-03-09T01:55:55.580Z,-1.08
2023-03-09T01:58:31.743Z,-1.15
2023-03-09T02:01:00.979Z,-1.05
2023-03-09T02:03:48.174Z,-1.11
2023-03-09T02:06:22.761Z,-1.01
2023-03-09T02:09:32.739Z,-1.08
2023-03-09T02:12:04.658Z,-0.99
2023-03-09T02:14:35.191Z,-1.03
2023-03-09T02:17:05.270Z,-1.04
2023-03-09T02:20:14.969Z,-1.10
2023-03-09T02:22:49.482Z,-1.01
2023-03-09T02:25:41.855Z,-1.03
2023-03-09T02:28:12.413Z,-0.97
2023-03-09T02:30:49.492Z,-1.05
2023-03-09T02:33:31.690Z,-0.96
2023-03-09T02:36:03.297Z,-1.04
2023-03-09T02:38:33.796Z,-0.91
2023-03-09T02:41:09.840Z,-0.93
2023-03-09T02:43:54.167Z,-1.07
2023-03-09T02:46:24.429Z,-1.00
2023-03-09T02:48:55.309Z,-0.84
2023-03-09T02:51:25.395Z,-0.80
2023-03-09T02:53:55.482Z,-0.97
2023-03-09T02:56:25.605Z,-1.06
2023-03-09T02:58:55.825Z,-1.06
2023-03-09T03:01:26.004Z,-1.09
2023-03-09T03:03:56.433Z,-1.11
2023-03-09T03:06:26.609Z,-1.23
2023-03-09T03:08:56.787Z,-1.19
2023-03-09T03:11:26.955Z,-1.13
2023-03-09T03:13:57.186Z,-0.99
2023-03-09T03:16:27.342Z,-0.96
2023-03-09T03:18:57.447Z,-1.13
2023-03-09T03:21:27.671Z,-1.11
2023-03-09T03:23:57.915Z,-1.21
2023-03-09T03:26:28.136Z,-1.25
2023-03-09T03:28:58.288Z,-1.00
2023-03-09T03:31:28.362Z,-0.88
2023-03-09T03:33:58.521Z,-0.93
2023-03-09T03:36:28.666Z,-1.00
2023-03-09T03:38:58.777Z,-1.05
2023-03-09T03:41:28.968Z,-1.04
2023-03-09T03:43:59.227Z,-1.03
2023-03-09T03:46:29.384Z,-1.11
2023-03-09T03:48:59.522Z,-0.94
2023-03-09T03:51:29.657Z,-0.97
2023-03-09T03:53:59.943Z,-0.94
2023-03-09T03:56:29.995Z,-1.05
2023-03-09T03:59:00.074Z,-1.14
2023-03-09T04:01:30.352Z,-0.94
2023-03-09T04:04:00.655Z,-1.09
2023-03-09T04:06:33.244Z,-1.16
2023-03-09T04:09:06.021Z,-1.14
2023-03-09T04:11:36.768Z,-0.98
2023-03-09T04:14:06.865Z,-0.80
2023-03-09T04:16:39.517Z,-0.80
2023-03-09T04:19:08.611Z,-1.04
2023-03-09T04:21:36.777Z,-1.13
2023-03-09T04:24:06.053Z,-1.12
2023-03-09T04:26:34.283Z,-1.19
2023-03-09T04:29:02.045Z,-1.04
2023-03-09T04:31:30.389Z,-0.97
2023-03-09T04:33:58.937Z,-1.19
2023-03-09T04:36:28.130Z,-1.18
2023-03-09T04:38:55.909Z,-1.07
2023-03-09T04:41:23.014Z,-1.00
2023-03-09T04:43:51.396Z,-1.06
2023-03-09T04:46:19.888Z,-1.08
2023-03-09T04:48:48.293Z,-1.15
2023-03-09T04:51:16.870Z,-1.14
2023-03-09T04:53:45.064Z,-1.00
2023-03-09T04:56:14.077Z,-1.09
2023-03-09T04:58:41.904Z,-1.02
2023-03-09T05:01:10.368Z,-1.10
2023-03-09T05:03:39.376Z,-1.11
2023-03-09T05:06:07.874Z,-1.24
2023-03-09T05:08:36.221Z,-1.18
2023-03-09T05:11:04.180Z,-1.16
2023-03-09T05:13:32.421Z,-1.26
2023-03-09T05:16:05.322Z,-1.27
2023-03-09T05:18:37.566Z,-1.01
2023-03-09T05:21:09.914Z,-1.09
2023-03-09T05:23:40.008Z,-1.18
2023-03-09T05:26:11.537Z,-1.13
2023-03-09T05:28:41.929Z,-1.21
2023-03-09T05:31:15.169Z,-1.20
2023-03-09T05:33:45.300Z,-1.15
2023-03-09T05:36:27.201Z,-1.20
2023-03-09T05:38:58.496Z,-1.28
2023-03-09T05:41:28.573Z,-1.31
2023-03-09T05:44:02.235Z,-1.36
2023-03-09T05:46:32.947Z,-1.27
2023-03-09T05:49:00.762Z,-1.34
2023-03-09T05:51:29.477Z,-1.34
2023-03-09T05:53:57.603Z,-1.21
2023-03-09T05:56:26.026Z,-1.31
2023-03-09T05:58:57.775Z,-1.28
2023-03-09T06:01:31.342Z,-1.33
2023-03-09T06:04:00.849Z,-1.26
2023-03-09T06:06:31.387Z,-1.23
2023-03-09T06:09:00.558Z,-1.26
2023-03-09T06:11:30.872Z,-1.28
2023-03-09T06:14:00.749Z,-1.31
2023-03-09T06:16:30.457Z,-1.34
2023-03-09T06:18:58.066Z,-1.28
2023-03-09T06:21:27.890Z,-1.25
2023-03-09T06:23:59.040Z,-1.23
2023-03-09T06:26:29.090Z,-1.33
2023-03-09T06:28:58.390Z,-1.39
2023-03-09T06:31:28.248Z,-1.39
2023-03-09T06:33:58.715Z,-1.32
2023-03-09T06:36:28.414Z,-1.30
2023-03-09T06:38:58.116Z,-1.07
2023-03-09T06:41:32.870Z,-0.88
2023-03-09T06:44:02.278Z,-1.08
2023-03-09T06:46:32.272Z,-1.03
2023-03-09T06:49:02.040Z,-1.04
2023-03-09T06:51:31.966Z,-0.89
2023-03-09T06:54:02.823Z,-0.99
2023-03-09T06:56:31.707Z,-0.87
2023-03-09T06:59:01.385Z,-0.80
2023-03-09T07:01:32.397Z,-0.79
2023-03-09T07:04:02.373Z,-0.56
2023-03-09T07:06:31.922Z,-0.46
2023-03-09T07:09:01.955Z,-0.42
2023-03-09T07:11:32.136Z,-0.45
2023-03-09T07:14:01.915Z,-0.55
2023-03-09T07:16:31.801Z,-0.45
2023-03-09T07:19:02.045Z,-0.49
2023-03-09T07:21:33.216Z,-0.53
2023-03-09T07:24:02.400Z,-0.54
2023-03-09T07:26:31.792Z,-0.56
2023-03-09T07:29:02.325Z,-0.53
2023-03-09T07:31:32.881Z,-0.62
2023-03-09T07:34:02.850Z,-0.60
2023-03-09T07:36:32.406Z,-0.46
2023-03-09T07:39:01.976Z,-0.52
2023-03-09T07:41:31.906Z,-0.29
2023-03-09T07:44:01.223Z,-0.31
2023-03-09T07:46:31.134Z,-0.25
2023-03-09T07:49:00.847Z,-0.34
2023-03-09T07:51:31.034Z,-0.17
2023-03-09T07:54:01.127Z,-0.02
2023-03-09T07:56:30.810Z,0.05
2023-03-09T07:59:00.875Z,0.12
2023-03-09T08:01:31.517Z,0.15
2023-03-09T08:04:01.114Z,-0.10
2023-03-09T08:06:30.866Z,-0.22
2023-03-09T08:09:01.046Z,-0.12
2023-03-09T08:11:29.656Z,-0.27
2023-03-09T08:13:57.448Z,-0.38
2023-03-09T08:16:26.132Z,-0.06
2023-03-09T08:18:54.737Z,-0.03
2023-03-09T08:21:22.777Z,-0.02
2023-03-09T08:23:51.727Z,0.03
2023-03-09T08:26:24.151Z,0.01
2023-03-09T08:28:56.500Z,-0.08
2023-03-09T08:31:26.290Z,-0.11
2023-03-09T08:33:56.129Z,0.19
2023-03-09T08:36:26.375Z,0.14
2023-03-09T08:38:56.734Z,0.19
2023-03-09T08:41:26.478Z,0.26
2023-03-09T08:43:57.317Z,0.44
2023-03-09T08:46:28.052Z,0.16
2023-03-09T08:48:57.388Z,0.24
2023-03-09T08:51:29.590Z,0.15
2023-03-09T08:53:59.608Z,0.47
2023-03-09T08:56:29.292Z,0.33
2023-03-09T08:58:59.050Z,0.58
2023-03-09T09:01:28.848Z,0.52
2023-03-09T09:03:59.186Z,0.49
2023-03-09T09:06:29.949Z,0.40
2023-03-09T09:09:00.120Z,0.11
2023-03-09T09:11:31.133Z,0.13
2023-03-09T09:14:01.061Z,0.15
2023-03-09T09:16:31.006Z,0.16
2023-03-09T09:19:01.194Z,0.44
2023-03-09T09:21:31.937Z,0.32
2023-03-09T09:24:01.886Z,0.15
2023-03-09T09:26:32.062Z,0.13
2023-03-09T09:29:02.859Z,0.00
2023-03-09T09:31:32.593Z,-0.22
2023-03-09T09:34:02.771Z,-0.42
2023-03-09T09:36:30.811Z,-0.36
2023-03-09T09:38:59.186Z,-0.25
2023-03-09T09:41:56.896Z,-0.20
2023-03-09T09:44:39.906Z,-0.27
2023-03-09T09:47:29.331Z,-0.26
2023-03-09T09:50:03.138Z,0.02
2023-03-09T09:52:47.997Z,0.01
2023-03-09T09:55:38.484Z,0.19
2023-03-09T09:59:06.887Z,0.29
2023-03-09T10:02:04.287Z,0.37
2023-03-09T10:04:53.340Z,0.35
2023-03-09T10:07:26.677Z,0.57
2023-03-09T10:10:11.973Z,0.44
2023-03-09T10:12:44.996Z,0.57
2023-03-09T10:15:39.391Z,0.24
2023-03-09T10:18:29.939Z,0.10
2023-03-09T10:21:02.603Z,-0.13
2023-03-09T10:23:36.019Z,-0.12
2023-03-09T10:26:42.175Z,-0.15
2023-03-09T10:29:38.682Z,-0.09
2023-03-09T10:32:27.186Z,-0.21
2023-03-09T10:35:25.681Z,-0.09
2023-03-09T10:37:56.569Z,-0.04
2023-03-09T10:40:44.040Z,0.13
2023-03-09T10:43:25.856Z,0.02
2023-03-09T10:46:21.624Z,0.14
2023-03-09T10:49:15.863Z,0.18
2023-03-09T10:52:01.862Z,-0.03
2023-03-09T10:54:41.259Z,0.05
2023-03-09T10:57:35.016Z,0.24
2023-03-09T11:00:15.624Z,0.08
2023-03-09T11:03:00.184Z,0.06
2023-03-09T11:05:32.584Z,0.09
2023-03-09T11:08:03.934Z,0.02
2023-03-09T11:10:36.950Z,0.19
2023-03-09T11:13:07.024Z,0.10
2023-03-09T11:15:42.024Z,0.09
2023-03-09T11:18:31.296Z,0.16
2023-03-09T11:21:01.205Z,0.24
2023-03-09T11:23:50.699Z,0.38
2023-03-09T11:27:07.994Z,0.27
2023-03-09T11:30:15.882Z,0.36
2023-03-09T11:32:46.222Z,0.39
2023-03-09T11:35:19.300Z,0.31
2023-03-09T11:38:13.140Z,0.26
2023-03-09T11:40:48.171Z,0.27
2023-03-09T11:43:32.851Z,0.29
2023-03-09T11:46:15.991Z,0.27
2023-03-09T11:49:05.650Z,0.23
2023-03-09T11:51:47.361Z,0.26
2023-03-09T11:54:43.450Z,0.27
2023-03-09T11:57:21.928Z,0.43
2023-03-09T12:00:00.534Z,0.22
2023-03-09T12:03:16.352Z,0.35
2023-03-09T12:06:01.368Z,0.29
2023-03-09T12:08:44.586Z,0.27
2023-03-09T12:11:32.576Z,0.20
2023-03-09T12:14:23.437Z,0.24
2023-03-09T12:17:11.382Z,0.29
2023-03-09T12:19:53.104Z,0.37
2023-03-09T12:22:39.730Z,0.53
2023-03-09T12:25:23.228Z,0.43
2023-03-09T12:28:05.746Z,0.53
2023-03-09T12:30:55.943Z,0.48
2023-03-09T12:33:47.209Z,0.51
2023-03-09T12:36:43.144Z,0.77
2023-03-09T12:39:32.418Z,0.52
2023-03-09T12:42:05.664Z,0.41
2023-03-09T12:45:05.752Z,0.52
2023-03-09T12:48:26.905Z,0.52
2023-03-09T12:51:11.658Z,0.60
2023-03-09T12:54:23.980Z,0.46
2023-03-09T12:56:56.251Z,0.47
2023-03-09T12:59:28.039Z,0.47
2023-03-09T13:01:59.271Z,0.38
2023-03-09T13:04:29.676Z,0.44
2023-03-09T13:07:02.951Z,0.44
2023-03-09T13:09:44.319Z,0.56
2023-03-09T13:12:33.921Z,0.55
2023-03-09T13:15:29.050Z,0.74
2023-03-09T13:18:28.608Z,0.67
2023-03-09T13:20:57.423Z,0.66
2023-03-09T13:23:28.200Z,0.67
2023-03-09T13:25:58.675Z,0.63
2023-03-09T13:28:40.559Z,0.67
2023-03-09T13:31:28.115Z,0.82
2023-03-09T13:34:00.288Z,0.72
2023-03-09T13:36:37.124Z,0.55
2023-03-09T13:39:23.179Z,0.62
2023-03-09T13:41:56.263Z,0.58
2023-03-09T13:44:28.319Z,0.63
2023-03-09T13:47:00.736Z,0.83
2023-03-09T13:49:38.813Z,0.74
2023-03-09T13:52:18.781Z,0.77
2023-03-09T13:55:01.554Z,0.60
2023-03-09T13:57:38.039Z,0.57
2023-03-09T14:00:23.804Z,0.45
2023-03-09T14:02:54.835Z,0.69
2023-03-09T14:06:29.938Z,0.73
2023-03-09T14:08:23.703Z,0.48
2023-03-09T14:10:54.120Z,0.31
2023-03-09T14:13:27.378Z,0.35
2023-03-09T14:15:57.503Z,0.36
2023-03-09T14:18:55.614Z,0.66
2023-03-09T14:21:34.124Z,0.43
2023-03-09T14:24:35.786Z,0.46
2023-03-09T14:27:36.103Z,0.44
2023-03-09T14:30:44.222Z,0.70
2023-03-09T14:33:29.209Z,0.52
2023-03-09T14:36:57.075Z,0.54
2023-03-09T14:39:39.628Z,0.37
2023-03-09T14:42:28.957Z,0.29
2023-03-09T14:45:14.085Z,0.43
2023-03-09T14:47:42.049Z,0.42
2023-03-09T14:50:20.918Z,0.46
2023-03-09T14:52:49.642Z,0.62
2023-03-09T14:55:24.546Z,0.54
2023-03-09T14:57:54.855Z,0.50
2023-03-09T15:00:27.126Z,0.47
2023-03-09T15:02:55.396Z,0.42
2023-03-09T15:05:26.562Z,0.36
2023-03-09T15:07:55.400Z,0.22
2023-03-09T15:10:29.329Z,0.30
2023-03-09T15:12:58.250Z,0.30
2023-03-09T15:15:28.541Z,0.25
2023-03-09T15:17:58.511Z,0.19
2023-03-09T15:20:44.150Z,0.19
2023-03-09T15:23:14.704Z,0.13
2023-03-09T15:25:45.157Z,0.27
2023-03-09T15:28:16.227Z,0.16
2023-03-09T15:30:45.645Z,0.16
2023-03-09T15:33:15.522Z,0.18
2023-03-09T15:35:45.510Z,0.16
2023-03-09T15:38:15.211Z,0.19
2023-03-09T15:40:45.068Z,0.10
2023-03-09T15:43:14.878Z,0.11
2023-03-09T15:45:44.959Z,0.11
2023-03-09T15:48:15.072Z,0.11
2023-03-09T15:50:52.883Z,0.27
2023-03-09T15:53:22.942Z,0.29
2023-03-09T15:56:08.265Z,0.22
2023-03-09T15:58:39.281Z,0.02
2023-03-09T16:01:19.414Z,0.09
2023-03-09T16:03:53.120Z,0.08
2023-03-09T16:06:24.059Z,0.02
2023-03-09T16:08:53.424Z,-0.07
2023-03-09T16:11:23.414Z,-0.02
2023-03-09T16:13:53.484Z,-0.08
2023-03-09T16:16:23.341Z,-0.08
2023-03-09T16:18:54.937Z,-0.10
2023-03-09T16:21:25.311Z,-0.02
2023-03-09T16:23:55.112Z,-0.01
2023-03-09T16:26:24.902Z,-0.06
2023-03-09T16:28:55.273Z,-0.06
2023-03-09T16:31:29.090Z,0.03
2023-03-09T16:33:57.373Z,0.27
2023-03-09T16:36:29.980Z,0.11
2023-03-09T16:39:02.004Z,0.00
2023-03-09T16:41:32.171Z,0.06
2023-03-09T16:44:02.072Z,-0.03
2023-03-09T16:46:32.412Z,-0.09
2023-03-09T16:49:02.371Z,-0.16
2023-03-09T16:51:32.034Z,-0.13
2023-03-09T16:54:00.586Z,-0.02
2023-03-09T16:56:29.315Z,-0.15
2023-03-09T16:58:57.303Z,-0.17
2023-03-09T17:01:25.999Z,-0.17
2023-03-09T17:03:54.182Z,-0.16
2023-03-09T17:06:23.914Z,-0.17
2023-03-09T17:08:54.185Z,-0.24
2023-03-09T17:11:25.036Z,-0.29
2023-03-09T17:13:55.377Z,-0.02
2023-03-09T17:16:25.632Z,-0.18
2023-03-09T17:18:59.137Z,0.04
2023-03-09T17:21:28.146Z,-0.19
2023-03-09T17:23:57.633Z,-0.36
2023-03-09T17:26:29.841Z,-0.43
2023-03-09T17:29:00.188Z,-0.37
2023-03-09T17:31:30.274Z,-0.12
2023-03-09T17:34:00.983Z,-0.19
2023-03-09T17:36:31.143Z,-0.43
2023-03-09T17:39:01.102Z,-0.47
2023-03-09T17:41:31.091Z,-0.44
2023-03-09T17:44:01.306Z,-0.47
2023-03-09T17:46:31.729Z,-0.42
2023-03-09T17:49:02.835Z,-0.41
2023-03-09T17:51:31.478Z,-0.38
2023-03-09T17:54:01.385Z,-0.45
2023-03-09T17:56:31.196Z,-0.55
2023-03-09T17:59:01.124Z,-0.50
2023-03-09T18:01:31.612Z,-0.51
2023-03-09T18:04:01.369Z,-0.57
2023-03-09T18:06:35.867Z,-0.64
2023-03-09T18:09:05.358Z,-0.65
2023-03-09T18:11:36.537Z,-0.65
2023-03-09T18:14:07.961Z,-0.69
2023-03-09T18:16:37.288Z,-0.70
2023-03-09T18:19:04.837Z,-0.72
2023-03-09T18:21:37.693Z,-0.68
2023-03-09T18:24:08.554Z,-0.73
2023-03-09T18:26:41.183Z,-0.74
2023-03-09T18:29:08.783Z,-0.78
2023-03-09T18:31:36.507Z,-0.79
2023-03-09T18:34:07.708Z,-0.80
2023-03-09T18:36:37.119Z,-0.78
2023-03-09T18:39:09.141Z,-0.80
2023-03-09T18:41:38.594Z,-0.87
2023-03-09T18:44:08.682Z,-0.86
2023-03-09T18:46:38.817Z,-0.82
2023-03-09T18:49:08.722Z,-0.86
2023-03-09T18:51:38.479Z,-0.90
2023-03-09T18:54:09.625Z,-0.85
2023-03-09T18:56:40.519Z,-0.88
2023-03-09T18:59:13.572Z,-0.90
2023-03-09T19:01:43.259Z,-0.94
2023-03-09T19:04:14.638Z,-0.88
2023-03-09T19:06:44.894Z,-0.89
2023-03-09T19:09:13.168Z,-0.83
2023-03-09T19:11:41.947Z,-0.84
2023-03-09T19:14:11.016Z,-0.86
2023-03-09T19:16:38.717Z,-0.84
2023-03-09T19:19:07.037Z,-0.89
2023-03-09T19:21:35.330Z,-0.94
2023-03-09T19:24:06.046Z,-0.88
2023-03-09T19:26:36.144Z,-0.92
2023-03-09T19:29:07.111Z,-0.94
2023-03-09T19:31:38.831Z,-0.93
2023-03-09T19:34:10.130Z,-0.92
2023-03-09T19:36:37.955Z,-0.97
2023-03-09T19:39:07.968Z,-1.00
2023-03-09T19:41:38.273Z,-0.83
2023-03-09T19:44:09.521Z,-0.73
2023-03-09T19:46:38.870Z,-0.80
2023-03-09T19:49:08.655Z,-0.93
2023-03-09T19:51:38.968Z,-0.97
2023-03-09T19:54:14.537Z,-0.99
2023-03-09T19:56:43.335Z,-1.02
2023-03-09T19:59:17.040Z,-0.95
2023-03-09T20:01:50.422Z,-0.96
2023-03-09T20:04:24.243Z,-0.85
2023-03-09T20:06:57.395Z,-0.88
2023-03-09T20:09:29.089Z,-0.94
2023-03-09T20:11:59.215Z,-0.82
2023-03-09T20:14:29.649Z,-0.85
2023-03-09T20:17:00.057Z,-0.87
2023-03-09T20:19:31.727Z,-0.87
2023-03-09T20:22:03.325Z,-0.90
2023-03-09T20:24:33.302Z,-0.94
2023-03-09T20:27:03.261Z,-0.83
2023-03-09T20:29:32.980Z,-0.87
2023-03-09T20:32:04.468Z,-0.92
2023-03-09T20:34:34.071Z,-0.91
2023-03-09T20:37:04.037Z,-0.92
2023-03-09T20:39:33.792Z,-0.93
2023-03-09T20:42:04.770Z,-0.96
2023-03-09T20:44:34.924Z,-0.79
2023-03-09T20:47:04.938Z,-0.75
2023-03-09T20:49:34.931Z,-0.84
2023-03-09T20:52:05.243Z,-0.90
2023-03-09T20:54:35.251Z,-0.92
2023-03-09T20:57:05.114Z,-0.89
2023-03-09T20:59:35.108Z,-0.87
2023-03-09T21:02:04.941Z,-0.82
2023-03-09T21:04:40.322Z,-0.85
2023-03-09T21:07:12.725Z,-0.86
2023-03-09T21:09:43.312Z,-0.89
2023-03-09T21:12:17.933Z,-0.85
2023-03-09T21:14:45.170Z,-0.85
2023-03-09T21:17:15.158Z,-0.89
2023-03-09T21:19:44.868Z,-0.93
2023-03-09T21:22:15.479Z,-0.96
2023-03-09T21:24:54.001Z,-0.89
2023-03-09T21:27:24.264Z,-0.87
2023-03-09T21:29:52.103Z,-0.87
2023-03-09T21:32:22.319Z,-0.78
2023-03-09T21:34:53.263Z,-0.88
2023-03-09T21:37:22.768Z,-0.88
2023-03-09T21:39:54.925Z,-0.84
2023-03-09T21:42:27.235Z,-0.93
2023-03-09T21:44:56.850Z,-1.00
2023-03-09T21:47:24.808Z,-0.84
2023-03-09T21:49:53.171Z,-0.88
2023-03-09T21:52:21.590Z,-0.88
2023-03-09T21:54:50.458Z,-0.91
2023-03-09T21:57:18.711Z,-0.70
2023-03-09T21:59:46.976Z,-0.72
2023-03-09T22:02:19.503Z,-0.80
2023-03-09T22:04:49.809Z,-0.73
2023-03-09T22:07:19.524Z,-0.75
2023-03-09T22:09:50.304Z,-0.80
2023-03-09T22:12:19.153Z,-0.73
2023-03-09T22:14:52.895Z,-0.77
2023-03-09T22:17:23.076Z,-0.77
2023-03-09T22:19:59.021Z,-0.62
2023-03-09T22:22:28.074Z,-0.65
2023-03-09T22:24:57.942Z,-0.73
2023-03-09T22:27:32.235Z,-0.82
2023-03-09T22:30:02.037Z,-0.83
2023-03-09T22:32:31.995Z,-0.83
2023-03-09T22:35:01.514Z,-0.93
2023-03-09T22:37:31.545Z,-0.99
2023-03-09T22:40:08.958Z,-1.01
2023-03-09T22:42:39.294Z,-0.98
2023-03-09T22:45:11.701Z,-0.95
2023-03-09T22:47:40.968Z,-0.64
2023-03-09T22:50:12.781Z,-0.80
2023-03-09T22:52:41.090Z,-0.75
2023-03-09T22:55:12.438Z,-0.84
2023-03-09T22:57:43.160Z,-0.76
2023-03-09T23:00:18.400Z,-0.83
2023-03-09T23:02:48.166Z,-0.69
2023-03-09T23:05:18.069Z,-0.79
2023-03-09T23:07:45.207Z,-0.82
2023-03-09T23:10:15.069Z,-0.71
2023-03-09T23:12:44.801Z,-0.80
2023-03-09T23:15:15.252Z,-0.84
2023-03-09T23:17:44.658Z,-0.68
2023-03-09T23:20:16.370Z,-0.71
2023-03-09T23:22:46.722Z,-0.78
2023-03-09T23:25:17.193Z,-0.69
2023-03-09T23:27:46.665Z,-0.75
2023-03-09T23:30:18.040Z,-0.77
2023-03-09T23:32:48.103Z,-0.54
2023-03-09T23:35:17.882Z,-0.65
2023-03-09T23:37:47.913Z,-0.75
2023-03-09T23:40:22.988Z,-0.66
2023-03-09T23:42:52.953Z,-0.79
2023-03-09T23:45:23.062Z,-0.78
2023-03-09T23:47:52.851Z,-0.71
2023-03-09T23:50:22.832Z,-0.71
2023-03-09T23:52:52.675Z,-0.58
2023-03-09T23:55:22.396Z,-0.70
2023-03-09T23:57:52.149Z,-0.54
